Time;durP1;ratioP1;P1;durP2;ratioP2;P2;SDS_P1;SDS_P2;PMS_P1;PMS_P2;Temp;Humidity;BMP_temperature;BMP_pressure;BME280_temperature;BME280_humidity;BME280_pressure;Samples;Min_cycle;Max_cycle;Signal;HPM_P1;HPM_P2
2023/01/26 00:00:58;;;;;;;28.08;20.73;;;1.70;99.90;;;;;;5089677;28;20381;-71
2023/01/26 00:03:25;;;;;;;28.50;20.23;;;1.80;99.90;;;;;;5088395;28;20398;-71
2023/01/26 00:05:50;;;;;;;25.85;19.20;;;1.90;99.90;;;;;;5089772;28;20394;-71
2023/01/26 00:08:16;;;;;;;26.25;19.02;;;1.80;99.90;;;;;;5089785;28;20412;-71
2023/01/26 00:10:49;;;;;;;26.73;19.73;;;1.70;99.90;;;;;;5089667;28;20400;-71
2023/01/26 00:13:16;;;;;;;29.75;19.85;;;1.80;99.90;;;;;;5091802;28;20395;-71
2023/01/26 00:15:41;;;;;;;28.67;20.35;;;1.80;99.90;;;;;;5074983;28;20389;-71
2023/01/26 00:18:08;;;;;;;27.58;19.73;;;1.90;99.90;;;;;;5093362;28;20381;-71
2023/01/26 00:20:33;;;;;;;27.10;19.45;;;1.90;99.90;;;;;;5093329;28;20382;-71
2023/01/26 00:22:59;;;;;;;26.23;18.85;;;1.50;99.90;;;;;;5092378;28;20397;-71
2023/01/26 00:25:24;;;;;;;34.20;22.50;;;1.40;99.90;;;;;;5093402;28;20385;-71
2023/01/26 00:27:50;;;;;;;25.50;18.63;;;1.60;99.90;;;;;;5093273;28;20832;-72
2023/01/26 00:30:16;;;;;;;26.90;19.43;;;1.50;99.90;;;;;;5091806;28;20436;-71
2023/01/26 00:32:42;;;;;;;29.17;20.15;;;1.60;99.90;;;;;;5091500;28;20451;-71
2023/01/26 00:35:07;;;;;;;28.25;19.30;;;1.70;99.90;;;;;;5092795;28;20385;-72
2023/01/26 00:37:33;;;;;;;28.85;20.33;;;1.60;99.90;;;;;;5093227;28;20382;-70
2023/01/26 00:39:58;;;;;;;29.60;19.87;;;1.70;99.90;;;;;;5074580;28;20406;-71
2023/01/26 00:42:24;;;;;;;25.77;19.00;;;1.70;99.90;;;;;;5092722;28;20868;-70
2023/01/26 00:44:50;;;;;;;26.37;18.80;;;1.70;99.90;;;;;;5092722;28;20385;-71
2023/01/26 00:47:16;;;;;;;27.83;19.60;;;1.80;99.90;;;;;;5093002;28;20381;-71
2023/01/26 00:49:43;;;;;;;27.60;19.45;;;1.70;99.90;;;;;;5092937;28;20876;-70
2023/01/26 00:52:09;;;;;;;25.83;18.70;;;1.60;99.90;;;;;;5092714;28;20802;-70
2023/01/26 00:54:35;;;;;;;27.75;19.20;;;1.70;99.90;;;;;;5092076;28;20385;-70
2023/01/26 00:57:00;;;;;;;27.20;18.70;;;1.50;99.90;;;;;;5092528;28;20390;-71
2023/01/26 00:59:26;;;;;;;26.67;18.97;;;1.50;99.90;;;;;;5092710;28;20464;-70
2023/01/26 01:01:53;;;;;;;28.27;18.40;;;1.60;99.90;;;;;;5092801;28;20374;-71
2023/01/26 01:04:19;;;;;;;24.48;18.00;;;1.50;99.90;;;;;;5091915;28;20377;-71
2023/01/26 01:06:44;;;;;;;25.30;17.75;;;1.60;99.90;;;;;;5092347;28;20440;-70
2023/01/26 01:09:10;;;;;;;25.67;17.85;;;1.60;99.90;;;;;;5074109;28;20672;-71
2023/01/26 01:11:37;;;;;;;23.37;16.10;;;1.50;99.90;;;;;;5092384;28;20406;-71
2023/01/26 01:14:02;;;;;;;21.40;16.80;;;1.60;99.90;;;;;;5091906;28;20979;-69
2023/01/26 01:16:28;;;;;;;23.43;17.10;;;1.60;99.90;;;;;;5092492;28;20449;-70
2023/01/26 01:18:55;;;;;;;20.83;15.77;;;1.60;99.90;;;;;;5092080;28;20756;-70
2023/01/26 01:21:22;;;;;;;21.73;16.20;;;1.70;99.90;;;;;;5091843;28;20397;-71
2023/01/26 01:23:48;;;;;;;23.83;16.95;;;1.60;99.90;;;;;;5090178;28;20408;-71
2023/01/26 01:26:14;;;;;;;23.97;16.67;;;1.50;99.90;;;;;;5092221;28;20770;-70
2023/01/26 01:28:41;;;;;;;22.87;17.33;;;1.50;99.90;;;;;;5074033;28;20428;-70
2023/01/26 01:31:12;;;;;;;25.50;17.73;;;1.40;99.90;;;;;;5092144;28;20389;-71
2023/01/26 01:33:38;;;;;;;22.30;16.88;;;1.40;99.90;;;;;;5091087;28;20393;-70
2023/01/26 01:36:06;;;;;;;23.38;16.92;;;1.40;99.90;;;;;;5079582;28;20423;-70
2023/01/26 01:38:33;;;;;;;21.57;17.27;;;1.50;99.90;;;;;;5071419;28;20486;-71
2023/01/26 01:40:58;;;;;;;22.38;16.40;;;1.50;99.90;;;;;;5053654;28;20833;-71
2023/01/26 01:43:28;;;;;;;22.77;16.97;;;1.60;99.90;;;;;;5071000;28;20455;-71
2023/01/26 01:45:54;;;;;;;22.98;16.77;;;1.70;99.90;;;;;;5072947;28;20376;-71
2023/01/26 01:48:34;;;;;;;22.40;16.23;;;1.50;99.90;;;;;;5091594;28;20394;-71
2023/01/26 01:51:05;;;;;;;23.48;17.98;;;1.60;99.90;;;;;;5091744;28;20472;-71
2023/01/26 01:53:34;;;;;;;22.95;17.10;;;1.70;99.90;;;;;;5091012;28;20397;-71
2023/01/26 01:56:04;;;;;;;22.93;17.53;;;1.60;99.90;;;;;;5091823;28;20374;-71
2023/01/26 01:58:34;;;;;;;20.75;16.20;;;1.70;99.90;;;;;;5091502;28;20401;-71
2023/01/26 02:01:00;;;;;;;25.10;17.77;;;1.60;99.90;;;;;;5091300;28;20875;-71
2023/01/26 02:03:28;;;;;;;21.80;16.35;;;1.50;99.90;;;;;;5090678;28;20397;-71
2023/01/26 02:06:14;;;;;;;20.27;16.05;;;1.60;99.90;;;;;;5091492;28;20454;-71
2023/01/26 02:08:43;;;;;;;19.55;15.00;;;1.50;99.90;;;;;;5073284;28;20488;-71
2023/01/26 02:11:35;;;;;;;19.60;15.47;;;1.40;99.90;;;;;;5102174;22;20991;-70
2023/01/26 02:14:05;;;;;;;21.00;16.05;;;1.50;99.90;;;;;;5065436;28;20729;-70
2023/01/26 02:16:31;;;;;;;21.27;16.27;;;1.60;99.90;;;;;;5070671;28;20439;-70
2023/01/26 02:18:56;;;;;;;23.67;16.60;;;1.40;99.90;;;;;;5070862;28;20392;-70
2023/01/26 02:21:23;;;;;;;19.37;15.70;;;1.40;99.90;;;;;;5082768;28;20400;-70
2023/01/26 02:24:11;;;;;;;23.90;16.52;;;1.40;99.90;;;;;;5090434;28;20446;-70
2023/01/26 02:26:37;;;;;;;22.92;16.70;;;1.50;99.90;;;;;;5091061;28;20378;-70
2023/01/26 02:29:08;;;;;;;21.90;15.63;;;1.50;99.90;;;;;;5090410;28;20568;-70
2023/01/26 02:31:34;;;;;;;21.30;16.27;;;1.40;99.90;;;;;;5090936;28;20414;-70
2023/01/26 02:34:00;;;;;;;20.25;16.08;;;1.40;99.90;;;;;;5090177;28;20431;-70
2023/01/26 02:36:29;;;;;;;21.83;16.15;;;1.30;99.90;;;;;;5080756;28;20402;-70
2023/01/26 02:39:16;;;;;;;24.08;17.40;;;1.30;99.90;;;;;;5090780;28;20488;-70
2023/01/26 02:44:28;;;;;;;23.10;16.80;;;1.40;99.90;;;;;;5089934;28;20377;-69
2023/01/26 02:46:53;;;;;;;21.88;16.88;;;1.40;99.90;;;;;;5090733;28;20386;-70
2023/01/26 02:52:04;;;;;;;20.77;16.23;;;1.40;99.90;;;;;;5090681;28;20380;-70
2023/01/26 02:57:14;;;;;;;20.35;15.60;;;1.40;99.90;;;;;;5090519;28;20461;-70
2023/01/26 02:59:39;;;;;;;21.95;16.65;;;1.30;99.90;;;;;;5090301;28;20500;-70
2023/01/26 03:02:06;;;;;;;23.90;16.60;;;1.40;99.90;;;;;;5090107;28;20412;-69
2023/01/26 03:04:31;;;;;;;24.52;18.20;;;1.40;99.90;;;;;;5089387;28;20410;-70
2023/01/26 03:06:57;;;;;;;24.17;17.90;;;1.50;99.90;;;;;;5090106;28;20501;-70
2023/01/26 03:09:22;;;;;;;23.95;18.05;;;1.40;99.90;;;;;;5090258;28;20374;-70
2023/01/26 03:11:48;;;;;;;26.73;17.92;;;1.40;99.90;;;;;;5090113;28;20393;-70
2023/01/26 03:14:14;;;;;;;25.52;17.60;;;1.50;99.90;;;;;;5089588;28;20469;-72
2023/01/26 03:16:39;;;;;;;26.33;18.08;;;1.30;99.90;;;;;;5090312;28;20378;-72
2023/01/26 03:29:47;;;;;;;28.35;18.40;;;1.10;99.90;;;;;;5070029;28;20402;-71
2023/01/26 03:32:12;;;;;;;25.27;18.40;;;1.20;99.90;;;;;;5069898;28;20383;-72
2023/01/26 03:34:38;;;;;;;25.17;17.70;;;1.20;99.90;;;;;;5069665;28;20625;-71
2023/01/26 03:37:04;;;;;;;29.40;19.47;;;1.10;99.90;;;;;;5089659;28;21052;-71
2023/01/26 03:56:20;;;;;;;25.38;18.63;;;1.10;99.90;;;;;;5094603;28;20400;-71
2023/01/26 03:58:47;;;;;;;27.42;19.30;;;1.20;99.90;;;;;;5093807;28;20928;-71
2023/01/26 04:01:19;;;;;;;27.35;19.25;;;1.10;99.90;;;;;;5093432;28;20403;-71
2023/01/26 04:09:19;;;;;;;25.13;16.50;;;1.20;99.90;;;;;;5093772;28;20411;-71
2023/01/26 04:11:45;;;;;;;24.67;17.30;;;1.10;99.90;;;;;;5093287;28;20402;-71
2023/01/26 04:22:25;;;;;;;24.52;17.58;;;1.20;99.90;;;;;;5093104;28;20376;-71
2023/01/26 04:24:51;;;;;;;27.67;18.75;;;1.10;99.90;;;;;;5092737;28;20386;-71
2023/01/26 04:27:16;;;;;;;26.38;18.73;;;1.00;99.90;;;;;;5093182;28;20740;-71
2023/01/26 04:29:42;;;;;;;26.35;17.58;;;1.10;99.90;;;;;;5092857;28;20451;-71
2023/01/26 04:32:07;;;;;;;25.02;16.38;;;1.10;99.90;;;;;;5075257;28;20385;-71
2023/01/26 04:34:33;;;;;;;19.77;15.10;;;1.00;99.90;;;;;;5093033;28;20390;-71
2023/01/26 04:36:58;;;;;;;25.38;17.35;;;1.20;99.90;;;;;;5055579;28;20392;-70
2023/01/26 04:39:24;;;;;;;23.13;16.40;;;1.10;99.90;;;;;;5073260;28;20487;-70
2023/01/26 04:41:49;;;;;;;20.37;15.50;;;1.10;99.90;;;;;;5086050;28;20856;-71
2023/01/26 04:44:15;;;;;;;22.13;16.20;;;1.10;99.90;;;;;;5092697;28;20390;-71
2023/01/26 04:46:41;;;;;;;20.83;15.30;;;1.10;99.90;;;;;;5093498;28;20455;-71
2023/01/26 04:49:07;;;;;;;24.27;17.00;;;1.10;99.90;;;;;;5093485;28;20493;-71
2023/01/26 04:51:33;;;;;;;22.88;16.38;;;1.10;99.90;;;;;;5093213;28;20935;-71
2023/01/26 04:53:58;;;;;;;23.15;16.15;;;0.90;99.90;;;;;;5092310;28;20394;-71
2023/01/26 04:56:26;;;;;;;23.93;15.63;;;1.00;99.90;;;;;;5093226;28;20378;-71
2023/01/26 04:58:53;;;;;;;22.77;15.57;;;1.00;99.90;;;;;;5092705;28;20925;-72
2023/01/26 05:01:19;;;;;;;21.35;14.40;;;1.00;99.90;;;;;;5093093;28;20386;-71
2023/01/26 05:03:44;;;;;;;21.50;14.10;;;1.10;99.90;;;;;;5092428;28;20412;-71
2023/01/26 05:06:10;;;;;;;21.45;14.85;;;1.00;99.90;;;;;;5093108;28;20461;-71
2023/01/26 05:08:36;;;;;;;23.45;15.13;;;0.90;99.90;;;;;;5092900;28;20451;-71
2023/01/26 05:11:02;;;;;;;20.95;14.95;;;0.90;99.90;;;;;;5092749;28;20401;-71
2023/01/26 05:13:28;;;;;;;22.27;15.15;;;0.90;99.90;;;;;;5092129;28;20457;-71
2023/01/26 05:15:53;;;;;;;22.73;15.07;;;1.00;99.90;;;;;;5092948;28;20401;-71
2023/01/26 05:18:19;;;;;;;23.33;14.93;;;0.90;99.90;;;;;;5092849;28;20409;-71
2023/01/26 05:20:45;;;;;;;22.03;15.07;;;0.90;99.90;;;;;;5092682;28;20394;-71
2023/01/26 05:23:10;;;;;;;19.27;14.00;;;1.00;99.90;;;;;;5091634;28;20471;-71
2023/01/26 05:25:36;;;;;;;22.47;14.83;;;0.80;99.90;;;;;;5092837;28;20374;-71
2023/01/26 05:28:01;;;;;;;23.30;15.20;;;0.80;99.90;;;;;;5092525;28;20385;-70
2023/01/26 05:30:27;;;;;;;18.80;14.77;;;0.80;99.90;;;;;;5092767;28;20439;-72
2023/01/26 05:32:52;;;;;;;18.33;13.60;;;0.80;99.90;;;;;;5091962;28;20382;-70
2023/01/26 05:35:18;;;;;;;20.47;15.53;;;0.80;99.90;;;;;;5085532;28;20456;-71
2023/01/26 05:37:44;;;;;;;22.23;14.57;;;0.70;99.90;;;;;;5091050;28;20406;-71
2023/01/26 05:40:11;;;;;;;19.95;13.88;;;0.90;99.90;;;;;;5073711;28;20878;-70
2023/01/26 05:42:37;;;;;;;18.20;13.13;;;0.90;99.90;;;;;;5071241;28;20376;-71
2023/01/26 05:45:03;;;;;;;20.52;14.80;;;0.90;99.90;;;;;;5072210;28;20390;-71
2023/01/26 05:47:29;;;;;;;19.58;13.35;;;0.80;99.90;;;;;;5072072;28;20388;-71
2023/01/26 05:49:55;;;;;;;18.97;13.57;;;0.60;99.90;;;;;;5072155;28;20753;-71
2023/01/26 05:52:21;;;;;;;19.13;13.50;;;0.80;99.90;;;;;;5086960;28;20386;-71
2023/01/26 05:54:47;;;;;;;19.88;13.68;;;0.90;99.90;;;;;;5091172;28;20876;-71
2023/01/26 05:57:13;;;;;;;19.43;14.17;;;0.60;99.90;;;;;;5074141;28;20393;-71
2023/01/26 05:59:39;;;;;;;16.25;12.98;;;0.80;99.90;;;;;;5092057;28;20820;-71
2023/01/26 06:02:04;;;;;;;16.95;12.88;;;0.90;99.90;;;;;;5092626;28;20413;-71
2023/01/26 06:04:30;;;;;;;19.75;13.70;;;0.90;99.90;;;;;;5090982;28;20390;-71
2023/01/26 06:06:57;;;;;;;18.90;13.33;;;0.90;99.90;;;;;;5091659;28;20916;-71
2023/01/26 06:09:23;;;;;;;19.90;13.35;;;0.90;99.90;;;;;;5091224;28;20887;-71
2023/01/26 06:11:48;;;;;;;18.38;13.23;;;0.90;99.90;;;;;;5091549;28;20402;-71
2023/01/26 06:14:14;;;;;;;15.60;11.60;;;1.00;99.90;;;;;;5091116;28;20417;-71
2023/01/26 06:16:40;;;;;;;17.77;12.30;;;1.00;99.90;;;;;;5073467;28;20733;-72
2023/01/26 06:19:07;;;;;;;16.63;12.47;;;0.90;99.90;;;;;;5091447;28;20493;-71
2023/01/26 06:21:33;;;;;;;16.85;12.70;;;0.80;99.90;;;;;;5073140;28;20417;-71
2023/01/26 06:23:58;;;;;;;16.60;11.83;;;0.90;99.90;;;;;;5090768;28;20859;-70
2023/01/26 06:26:24;;;;;;;17.20;12.40;;;0.90;99.90;;;;;;5091317;28;20393;-71
2023/01/26 06:28:51;;;;;;;16.02;11.75;;;1.00;99.90;;;;;;5091585;28;20857;-71
2023/01/26 06:31:17;;;;;;;16.67;11.80;;;1.00;99.90;;;;;;5073307;28;20394;-71
2023/01/26 06:33:43;;;;;;;14.65;11.68;;;0.70;99.90;;;;;;5089487;28;20852;-71
2023/01/26 06:36:11;;;;;;;16.25;12.50;;;0.70;99.90;;;;;;5078254;28;20391;-71
2023/01/26 06:38:38;;;;;;;15.82;11.38;;;0.70;99.90;;;;;;5070779;28;20508;-71
2023/01/26 06:41:08;;;;;;;16.02;11.95;;;0.70;99.90;;;;;;5070877;28;20753;-70
2023/01/26 06:43:34;;;;;;;18.98;13.45;;;0.80;99.90;;;;;;5076874;28;20389;-71
2023/01/26 06:46:01;;;;;;;16.63;12.52;;;0.60;99.90;;;;;;5090997;28;20412;-71
2023/01/26 06:48:28;;;;;;;17.85;13.10;;;0.70;99.90;;;;;;5091111;28;20460;-70
2023/01/26 06:51:16;;;;;;;14.88;12.10;;;0.70;99.90;;;;;;5091063;28;20389;-71
2023/01/26 06:53:46;;;;;;;15.43;12.30;;;0.70;99.90;;;;;;5090159;28;20381;-71
2023/01/26 06:56:12;;;;;;;16.02;12.20;;;0.60;99.90;;;;;;5090977;28;20755;-71
2023/01/26 06:58:37;;;;;;;15.82;12.13;;;0.70;99.90;;;;;;5090821;28;20412;-71
2023/01/26 07:01:03;;;;;;;14.40;11.30;;;0.70;99.90;;;;;;5091095;28;20386;-71
2023/01/26 07:03:29;;;;;;;16.17;11.70;;;0.60;99.90;;;;;;5090646;28;20386;-71
2023/01/26 07:05:55;;;;;;;16.83;12.75;;;0.70;99.90;;;;;;5091409;28;20427;-70
2023/01/26 07:08:20;;;;;;;16.38;12.18;;;0.70;99.90;;;;;;5072511;28;20382;-71
2023/01/26 07:10:46;;;;;;;17.60;12.80;;;0.70;99.90;;;;;;5090773;28;20393;-71
2023/01/26 07:13:11;;;;;;;17.80;12.50;;;0.70;99.90;;;;;;5089784;28;20477;-70
2023/01/26 07:15:37;;;;;;;18.77;12.80;;;0.80;99.90;;;;;;5090865;28;20374;-71
2023/01/26 07:18:02;;;;;;;14.98;11.63;;;0.80;99.90;;;;;;5090704;28;20951;-70
2023/01/26 07:20:28;;;;;;;16.13;12.40;;;0.70;99.90;;;;;;5090183;28;20422;-70
2023/01/26 07:22:54;;;;;;;17.23;12.77;;;0.80;99.90;;;;;;5089931;28;20382;-70
2023/01/26 07:25:19;;;;;;;16.77;12.13;;;0.80;99.90;;;;;;5090607;28;20408;-70
2023/01/26 07:27:45;;;;;;;18.40;12.27;;;0.90;99.90;;;;;;5090620;28;20374;-70
2023/01/26 07:30:14;;;;;;;16.47;12.30;;;0.80;99.90;;;;;;5090614;28;20382;-70
2023/01/26 07:32:41;;;;;;;20.77;15.20;;;0.60;99.90;;;;;;5088863;28;20397;-70
2023/01/26 07:35:07;;;;;;;17.98;13.35;;;0.60;99.90;;;;;;5090337;28;20390;-70
2023/01/26 07:37:32;;;;;;;18.75;13.60;;;0.50;99.90;;;;;;5090108;28;20397;-71
2023/01/26 07:39:58;;;;;;;20.27;13.73;;;0.50;99.90;;;;;;5089923;28;20436;-71
2023/01/26 07:42:23;;;;;;;20.23;13.70;;;0.50;99.90;;;;;;5089800;28;20382;-71
2023/01/26 07:44:49;;;;;;;20.83;14.57;;;0.60;99.90;;;;;;5088260;28;20772;-70
2023/01/26 07:47:14;;;;;;;19.70;14.30;;;0.70;99.90;;;;;;5090139;28;20872;-70
2023/01/26 07:49:40;;;;;;;17.83;14.47;;;0.60;99.90;;;;;;5090065;28;20863;-70
2023/01/26 07:52:07;;;;;;;20.40;15.20;;;0.60;99.90;;;;;;5090105;28;20382;-71
2023/01/26 07:54:33;;;;;;;20.25;15.43;;;0.60;99.90;;;;;;5089448;28;20457;-70
2023/01/26 07:56:58;;;;;;;18.85;13.60;;;0.70;99.90;;;;;;5089966;28;20429;-70
2023/01/26 07:59:24;;;;;;;19.98;14.93;;;0.60;99.90;;;;;;5090224;28;20455;-71
2023/01/26 08:01:50;;;;;;;19.07;13.70;;;0.70;99.90;;;;;;5090087;28;20380;-71
2023/01/26 08:04:16;;;;;;;21.33;14.70;;;0.60;99.90;;;;;;5089225;28;20402;-70
2023/01/26 08:06:41;;;;;;;21.38;15.48;;;0.70;99.90;;;;;;5090155;28;20460;-70
2023/01/26 08:09:07;;;;;;;19.85;14.05;;;0.60;99.90;;;;;;5089896;28;20903;-70
2023/01/26 08:11:33;;;;;;;20.65;14.45;;;0.60;99.90;;;;;;5119014;22;20462;-71
2023/01/26 08:14:00;;;;;;;19.10;14.00;;;0.70;99.90;;;;;;5109727;28;21256;-71
2023/01/26 08:16:26;;;;;;;20.77;14.70;;;0.70;99.90;;;;;;5110855;28;20464;-71
2023/01/26 08:18:52;;;;;;;21.83;15.80;;;0.60;99.90;;;;;;5110918;28;20890;-70
2023/01/26 08:21:18;;;;;;;20.10;14.47;;;0.80;99.90;;;;;;5103894;28;20386;-71
2023/01/26 08:23:49;;;;;;;20.65;14.95;;;0.70;99.90;;;;;;5089416;28;20948;-71
2023/01/26 08:26:16;;;;;;;20.90;14.60;;;0.80;99.90;;;;;;5090185;28;20386;-71
2023/01/26 08:28:42;;;;;;;23.63;15.60;;;0.60;99.90;;;;;;5090634;28;20382;-71
2023/01/26 08:31:11;;;;;;;22.60;15.85;;;0.70;99.90;;;;;;5090556;28;20929;-70
2023/01/26 08:33:38;;;;;;;22.30;16.50;;;0.80;99.90;;;;;;5092033;28;20468;-70
2023/01/26 08:36:05;;;;;;;22.80;15.80;;;0.80;99.90;;;;;;5081263;28;20881;-70
2023/01/26 08:38:32;;;;;;;22.85;15.65;;;0.90;99.90;;;;;;5073581;28;20926;-70
2023/01/26 08:40:59;;;;;;;24.60;15.98;;;0.70;99.90;;;;;;5075181;28;20391;-71
2023/01/26 08:43:25;;;;;;;18.80;14.05;;;0.80;99.90;;;;;;5090664;28;20416;-71
2023/01/26 08:45:51;;;;;;;19.33;14.55;;;0.90;99.90;;;;;;5095550;28;20370;-71
2023/01/26 08:48:17;;;;;;;21.58;14.80;;;0.80;99.90;;;;;;5095182;28;20381;-70
2023/01/26 08:50:43;;;;;;;19.77;13.93;;;0.80;99.90;;;;;;5093587;28;20461;-70
2023/01/26 08:53:08;;;;;;;20.70;15.40;;;0.90;99.90;;;;;;5092515;28;20469;-70
2023/01/26 08:55:34;;;;;;;21.17;15.30;;;0.80;99.90;;;;;;5093386;28;20434;-70
2023/01/26 08:58:00;;;;;;;20.52;15.10;;;0.90;99.90;;;;;;5093083;28;20390;-70
2023/01/26 09:00:26;;;;;;;21.27;15.43;;;0.80;99.90;;;;;;5073179;28;20457;-70
2023/01/26 09:03:03;;;;;;;21.25;15.10;;;0.70;99.90;;;;;;5072309;28;20383;-70
2023/01/26 09:05:36;;;;;;;21.33;15.43;;;0.80;99.90;;;;;;5072935;28;20410;-70
2023/01/26 09:08:04;;;;;;;21.20;15.68;;;0.70;99.90;;;;;;5073249;28;20409;-70
2023/01/26 09:10:29;;;;;;;22.90;15.07;;;0.80;99.90;;;;;;5090698;28;20398;-70
2023/01/26 09:12:59;;;;;;;19.95;13.70;;;0.90;99.90;;;;;;5091559;28;20952;-71
2023/01/26 09:15:25;;;;;;;21.67;14.40;;;0.80;99.90;;;;;;5092874;28;20473;-70
2023/01/26 09:17:51;;;;;;;23.00;14.88;;;0.70;99.90;;;;;;5078642;28;20387;-71
2023/01/26 09:20:17;;;;;;;21.65;15.23;;;0.80;99.90;;;;;;5073115;28;20409;-70
2023/01/26 09:22:43;;;;;;;19.95;15.10;;;0.80;99.90;;;;;;5071376;28;20464;-70
2023/01/26 09:25:08;;;;;;;22.30;15.27;;;0.80;99.90;;;;;;5076023;28;20390;-70
2023/01/26 09:27:35;;;;;;;22.52;16.00;;;0.80;99.90;;;;;;5090854;28;20469;-70
2023/01/26 09:30:01;;;;;;;21.65;16.20;;;1.00;99.90;;;;;;5090431;28;20463;-71
2023/01/26 09:32:26;;;;;;;19.63;14.80;;;1.00;99.90;;;;;;5089095;28;20405;-70
2023/01/26 09:34:52;;;;;;;19.90;14.57;;;1.00;99.90;;;;;;5088350;28;20366;-70
2023/01/26 09:37:18;;;;;;;22.00;15.13;;;0.90;99.90;;;;;;5070998;28;20893;-70
2023/01/26 09:39:43;;;;;;;23.93;15.67;;;1.00;99.90;;;;;;5072244;28;20415;-70
2023/01/26 09:42:33;;;;;;;20.20;15.23;;;1.00;99.90;;;;;;5072704;28;20387;-70
2023/01/26 09:45:05;;;;;;;25.17;17.65;;;0.80;99.90;;;;;;5071414;28;20391;-70
2023/01/26 09:47:50;;;;;;;20.80;15.52;;;0.80;99.90;;;;;;5090044;28;20442;-70
2023/01/26 09:50:27;;;;;;;22.45;15.20;;;0.80;99.90;;;;;;5072470;28;20387;-70
2023/01/26 09:52:55;;;;;;;21.30;15.63;;;0.90;99.90;;;;;;5071581;28;20930;-71
2023/01/26 09:55:23;;;;;;;22.27;16.02;;;0.90;99.90;;;;;;5072920;28;20517;-70
2023/01/26 09:58:13;;;;;;;21.27;15.80;;;1.00;99.90;;;;;;5072699;28;20403;-71
2023/01/26 10:00:52;;;;;;;22.33;15.38;;;1.10;99.90;;;;;;5078954;28;20398;-70
2023/01/26 10:03:43;;;;;;;22.42;15.82;;;1.00;99.90;;;;;;5091529;28;20480;-70
2023/01/26 10:06:27;;;;;;;19.97;15.40;;;1.00;99.90;;;;;;5073917;28;20413;-70
2023/01/26 10:08:56;;;;;;;21.00;15.00;;;0.60;99.90;;;;;;5092396;28;20392;-70
2023/01/26 10:11:40;;;;;;;22.27;15.05;;;0.80;99.90;;;;;;5092101;28;20402;-70
2023/01/26 10:14:29;;;;;;;21.65;15.88;;;0.90;99.90;;;;;;5091500;28;20468;-70
2023/01/26 10:16:56;;;;;;;22.65;15.45;;;1.00;99.90;;;;;;5073985;28;20393;-70
2023/01/26 10:19:30;;;;;;;23.13;15.43;;;1.00;99.90;;;;;;5091795;28;20440;-71
2023/01/26 10:22:01;;;;;;;22.65;15.23;;;0.90;99.90;;;;;;5091844;28;20390;-70
2023/01/26 10:24:27;;;;;;;18.35;14.15;;;1.00;99.90;;;;;;5091291;28;20505;-70
2023/01/26 10:26:56;;;;;;;20.43;14.53;;;1.10;99.90;;;;;;5092041;28;20473;-70
2023/01/26 10:29:22;;;;;;;19.60;14.02;;;1.20;99.90;;;;;;5092012;28;20398;-70
2023/01/26 10:31:47;;;;;;;21.80;14.48;;;1.20;99.90;;;;;;5091627;28;20488;-70
2023/01/26 10:34:16;;;;;;;18.17;13.97;;;1.10;99.90;;;;;;5091365;28;20473;-71
2023/01/26 10:36:45;;;;;;;20.25;14.13;;;1.20;99.90;;;;;;5091319;28;20408;-70
2023/01/26 10:39:15;;;;;;;18.45;13.80;;;1.20;99.90;;;;;;5091781;28;20394;-70
2023/01/26 10:41:58;;;;;;;19.85;13.95;;;1.10;99.90;;;;;;5091661;28;20431;-70
2023/01/26 10:44:31;;;;;;;18.92;13.38;;;1.20;99.90;;;;;;5090968;28;20393;-71
2023/01/26 10:47:18;;;;;;;19.58;12.98;;;1.10;99.90;;;;;;5091394;28;21144;-70
2023/01/26 10:49:44;;;;;;;16.63;13.07;;;1.20;99.90;;;;;;5061970;28;20406;-70
2023/01/26 10:52:21;;;;;;;17.48;13.20;;;1.30;99.90;;;;;;5091512;28;20408;-70
2023/01/26 10:54:50;;;;;;;16.10;12.30;;;1.40;99.90;;;;;;5090667;28;20919;-70
2023/01/26 10:57:27;;;;;;;16.43;12.20;;;1.30;99.90;;;;;;5090819;28;20535;-70
2023/01/26 10:59:56;;;;;;;16.05;12.20;;;1.20;99.90;;;;;;5090880;28;20444;-70
2023/01/26 11:02:26;;;;;;;17.48;13.25;;;1.10;99.90;;;;;;5090989;28;20397;-71
2023/01/26 11:05:07;;;;;;;16.00;13.20;;;1.10;99.90;;;;;;5091095;28;20397;-70
2023/01/26 11:07:44;;;;;;;17.95;13.05;;;1.20;99.90;;;;;;5073134;28;20468;-71
2023/01/26 11:10:23;;;;;;;20.33;13.40;;;1.00;99.90;;;;;;5090998;28;20421;-71
2023/01/26 11:12:51;;;;;;;19.85;13.60;;;1.00;99.90;;;;;;5090458;28;20393;-71
2023/01/26 11:15:23;;;;;;;15.93;12.45;;;0.90;99.90;;;;;;5090931;28;20381;-71
2023/01/26 11:18:01;;;;;;;15.80;11.60;;;1.20;99.90;;;;;;5091133;28;20461;-71
2023/01/26 11:21:02;;;;;;;17.20;13.40;;;1.20;99.90;;;;;;5072891;28;20867;-71
2023/01/26 11:23:44;;;;;;;16.27;12.13;;;1.30;99.90;;;;;;5036718;28;20449;-71
2023/01/26 11:26:16;;;;;;;16.97;12.80;;;1.40;99.90;;;;;;5091082;28;20469;-71
2023/01/26 11:29:13;;;;;;;17.55;12.88;;;1.30;99.90;;;;;;5072835;28;20417;-71
2023/01/26 11:31:58;;;;;;;15.50;12.00;;;1.40;99.90;;;;;;5079949;28;20805;-71
2023/01/26 11:34:31;;;;;;;18.13;13.07;;;1.10;99.90;;;;;;5090315;28;20781;-71
2023/01/26 11:37:35;;;;;;;17.90;12.83;;;1.10;99.90;;;;;;5072117;28;20477;-71
2023/01/26 11:40:17;;;;;;;19.00;12.90;;;1.20;99.90;;;;;;5090664;28;20452;-71
2023/01/26 11:43:11;;;;;;;19.05;14.23;;;1.30;99.90;;;;;;5089884;28;20382;-72
2023/01/26 11:46:04;;;;;;;17.42;12.55;;;1.40;99.90;;;;;;5090719;28;20378;-71
2023/01/26 11:49:03;;;;;;;17.92;12.70;;;1.60;99.90;;;;;;5072197;28;20392;-71
2023/01/26 11:52:07;;;;;;;16.35;12.73;;;1.30;99.90;;;;;;5090887;28;20385;-71
2023/01/26 11:54:45;;;;;;;16.45;13.10;;;1.10;99.90;;;;;;5071840;28;20470;-71
2023/01/26 11:57:17;;;;;;;21.63;13.87;;;1.20;99.90;;;;;;5090732;28;20390;-71
2023/01/26 11:59:57;;;;;;;18.17;13.40;;;1.50;99.90;;;;;;5090829;28;20405;-71
2023/01/26 12:02:30;;;;;;;16.90;13.60;;;1.40;99.90;;;;;;5090510;28;20381;-71
2023/01/26 12:05:20;;;;;;;18.05;13.05;;;1.50;99.90;;;;;;5090382;28;20382;-71
2023/01/26 12:08:24;;;;;;;18.35;14.30;;;1.20;99.90;;;;;;5091320;28;20467;-71
2023/01/26 12:11:22;;;;;;;18.97;13.87;;;1.30;99.90;;;;;;5093720;28;20549;-71
2023/01/26 12:14:09;;;;;;;16.80;12.70;;;1.40;99.90;;;;;;5093835;28;20413;-71
2023/01/26 12:17:12;;;;;;;16.37;12.70;;;1.50;99.90;;;;;;5094354;28;20965;-71
2023/01/26 12:19:42;;;;;;;14.73;11.63;;;1.10;99.90;;;;;;5094352;28;20503;-71
2023/01/26 12:22:35;;;;;;;16.50;13.07;;;1.40;99.90;;;;;;5093806;28;20798;-71
2023/01/26 12:25:09;;;;;;;16.70;12.67;;;1.40;99.90;;;;;;5093916;28;20394;-71
2023/01/26 12:27:42;;;;;;;17.15;12.60;;;1.50;99.90;;;;;;5093604;28;20820;-71
2023/01/26 12:30:23;;;;;;;16.13;12.57;;;1.30;99.90;;;;;;5092808;28;20425;-71
2023/01/26 12:32:49;;;;;;;16.73;12.80;;;1.30;99.90;;;;;;5086791;28;20385;-71
2023/01/26 12:35:37;;;;;;;14.23;12.30;;;1.50;99.90;;;;;;5093751;28;20456;-71
2023/01/26 12:38:12;;;;;;;15.35;11.98;;;1.50;99.90;;;;;;5092143;28;20401;-71
2023/01/26 12:41:00;;;;;;;15.73;11.83;;;1.40;99.90;;;;;;5093650;28;20440;-71
2023/01/26 12:43:54;;;;;;;15.90;11.85;;;1.50;99.90;;;;;;5092954;28;20378;-72
2023/01/26 12:46:21;;;;;;;14.38;11.93;;;1.50;99.90;;;;;;5093407;28;20425;-71
2023/01/26 12:48:53;;;;;;;16.63;11.80;;;1.70;99.90;;;;;;5093619;28;20394;-71
2023/01/26 12:51:24;;;;;;;16.20;11.70;;;1.50;99.90;;;;;;5093855;28;20408;-71
2023/01/26 12:54:04;;;;;;;15.20;11.65;;;1.60;99.90;;;;;;5093009;28;20394;-71
2023/01/26 12:56:41;;;;;;;16.50;11.98;;;1.60;99.90;;;;;;5093481;28;20386;-71
2023/01/26 12:59:18;;;;;;;17.30;12.20;;;1.60;99.90;;;;;;5093306;28;20414;-71
2023/01/26 13:01:43;;;;;;;16.00;12.23;;;1.50;99.90;;;;;;5093114;28;20401;-71
2023/01/26 13:04:15;;;;;;;17.33;12.40;;;1.40;99.90;;;;;;5092665;28;20390;-70
2023/01/26 13:06:41;;;;;;;14.32;10.88;;;1.50;99.90;;;;;;5093292;28;20409;-70
2023/01/26 13:09:24;;;;;;;15.33;11.40;;;1.60;99.90;;;;;;5093504;28;20924;-71
2023/01/26 13:11:53;;;;;;;14.93;12.05;;;1.40;99.90;;;;;;5093395;28;20398;-71
2023/01/26 13:14:37;;;;;;;14.48;11.18;;;1.40;99.90;;;;;;5092222;28;20409;-71
2023/01/26 13:17:15;;;;;;;14.50;11.98;;;1.30;99.90;;;;;;5093552;28;20421;-72
2023/01/26 13:19:43;;;;;;;14.07;12.00;;;1.50;99.90;;;;;;5093014;28;20553;-71
2023/01/26 13:22:18;;;;;;;14.53;11.53;;;1.40;99.90;;;;;;5093081;28;20476;-72
2023/01/26 13:25:12;;;;;;;17.25;12.50;;;1.40;99.90;;;;;;5092478;28;20422;-72
2023/01/26 13:27:38;;;;;;;14.97;11.90;;;1.40;99.90;;;;;;5093643;28;20431;-71
2023/01/26 13:30:23;;;;;;;15.20;11.20;;;1.50;99.90;;;;;;5093863;28;20880;-71
2023/01/26 13:32:52;;;;;;;13.55;12.13;;;1.40;99.90;;;;;;5093717;28;20384;-72
2023/01/26 13:35:23;;;;;;;15.30;11.68;;;1.60;99.90;;;;;;5095367;28;21160;-71
2023/01/26 13:37:59;;;;;;;15.15;11.27;;;1.40;99.90;;;;;;5091725;28;20429;-71
2023/01/26 13:40:34;;;;;;;15.70;10.68;;;1.50;99.90;;;;;;5092650;28;20463;-71